aviador You're here:

LFRS Decoded Metar

NANTES in FRANCE
Report Time2018-07-23 07:30:00
UTC Time2018-07-23 07:49:39
Flight Rules vfr VFR
WindVRB at 03 kt
Visibility9999 m
Phenomena:N/A
Clouds:N/A
Expected CloudBase > 2,400 ft AGL from Temp-Dew spread
CeilingNone
Temp22°C (ISA +7)
Dew Point16°C (69% RH)
QNH1018 hPa
Density Alt1,001 ft
Elevation89 ft
Report Wrong Elevation
Raw Report
LFRS 230730Z AUTO VRB03KT CAVOK 22/16 Q1018 NOSIG=

Extra information for LFRS:More info

Metar Taf Metar & Taf Last 4 Metars F.Rules Stats Wind Profile Meteogram Temp Stats Airport Information Weather charts Add Link Nearby VenuesMetar ALERT Operation Metar Decoded Social comments